Time;durP1;ratioP1;P1;durP2;ratioP2;P2;SDS_P1;SDS_P2;PMS_P1;PMS_P2;Temp;Humidity;BMP_temperature;BMP_pressure;BME280_temperature;BME280_humidity;BME280_pressure;Samples;Min_cycle;Max_cycle;Signal;HPM_P1;HPM_P2
2022/06/06 00:00:47;;;;;;;;;14.60;10.40;;;;;16.77;100.00;101407.66;6312681;22;44728;-85
2022/06/06 00:03:17;;;;;;;;;11.80;11.00;;;;;16.74;100.00;101402.56;6321247;22;44700;-84
2022/06/06 00:05:43;;;;;;;;;11.40;8.00;;;;;16.73;100.00;101406.22;6329863;22;44741;-84
2022/06/06 00:08:11;;;;;;;;;6.80;6.00;;;;;16.67;100.00;101413.75;6323435;22;45326;-86
2022/06/06 00:10:39;;;;;;;;;7.60;7.60;;;;;16.63;100.00;101409.66;6321096;22;45357;-86
2022/06/06 00:13:05;;;;;;;;;7.40;7.40;;;;;16.54;100.00;101404.19;6323112;22;45151;-84
2022/06/06 00:15:32;;;;;;;;;7.60;7.40;;;;;16.53;100.00;101403.28;6318697;22;44724;-86
2022/06/06 00:17:57;;;;;;;;;5.40;5.40;;;;;16.46;100.00;101402.09;6312369;22;45189;-86
2022/06/06 00:20:23;;;;;;;;;8.25;6.50;;;;;16.42;100.00;101403.31;6281728;22;45325;-85
2022/06/06 00:22:49;;;;;;;;;6.75;5.00;;;;;16.39;100.00;101403.56;6310184;22;45340;-85
2022/06/06 00:25:15;;;;;;;;;6.60;6.60;;;;;16.38;100.00;101407.22;6312468;22;45490;-84
2022/06/06 00:27:41;;;;;;;;;5.50;5.25;;;;;16.30;100.00;101407.88;6315686;22;45300;-84
2022/06/06 00:30:07;;;;;;;;;7.75;6.50;;;;;16.25;100.00;101410.06;6317179;22;45226;-86
2022/06/06 00:35:20;;;;;;;;;6.80;6.40;;;;;16.23;100.00;101400.44;6311497;22;45380;-85
2022/06/06 00:37:47;;;;;;;;;7.00;7.00;;;;;16.18;100.00;101408.84;6309318;22;45222;-84
2022/06/06 00:40:14;;;;;;;;;5.60;5.60;;;;;16.14;100.00;101404.69;6307990;22;45091;-86
2022/06/06 00:42:41;;;;;;;;;8.40;8.40;;;;;16.10;100.00;101409.47;6309924;22;45352;-84
2022/06/06 00:45:21;;;;;;;;;7.80;6.60;;;;;16.12;100.00;101398.59;6308829;22;44797;-85
2022/06/06 00:48:18;;;;;;;;;9.20;7.00;;;;;16.08;100.00;101394.47;6281180;22;46436;-85
2022/06/06 00:50:48;;;;;;;;;8.00;7.60;;;;;16.07;100.00;101390.06;6296461;22;45287;-85
2022/06/06 00:53:24;;;;;;;;;7.20;6.80;;;;;16.04;100.00;101390.31;6306158;22;45260;-85
2022/06/06 00:55:53;;;;;;;;;8.80;8.00;;;;;16.07;100.00;101387.41;6280528;22;45520;-86
2022/06/06 00:58:23;;;;;;;;;8.80;8.20;;;;;16.06;100.00;101394.59;6314643;22;45095;-86
2022/06/06 01:00:50;;;;;;;;;6.60;5.60;;;;;16.07;100.00;101385.56;6313604;22;45297;-83
2022/06/06 01:03:18;;;;;;;;;7.20;7.20;;;;;16.07;100.00;101387.41;6306459;22;44570;-82
2022/06/06 01:05:47;;;;;;;;;8.80;7.00;;;;;16.08;100.00;101391.78;6310295;22;45312;-82
2022/06/06 01:08:14;;;;;;;;;9.80;9.00;;;;;16.06;100.00;101391.91;6312047;22;45430;-81
2022/06/06 01:10:39;;;;;;;;;13.60;8.80;;;;;16.05;100.00;101392.91;6308759;22;45470;-81
2022/06/06 01:13:08;;;;;;;;;10.50;8.00;;;;;16.04;100.00;101391.16;6282259;22;45523;-82
2022/06/06 01:16:02;;;;;;;;;8.00;6.60;;;;;16.03;100.00;101396.66;6312800;22;44643;-81
2022/06/06 01:18:56;;;;;;;;;10.80;10.20;;;;;15.98;100.00;101385.44;6313970;22;45185;-81
2022/06/06 01:21:32;;;;;;;;;10.60;10.60;;;;;15.98;100.00;101391.66;6252075;22;45528;-83
2022/06/06 01:24:07;;;;;;;;;7.40;7.40;;;;;15.94;100.00;101380.31;6252372;22;45173;-80
2022/06/06 01:26:47;;;;;;;;;12.20;11.00;;;;;15.93;100.00;101388.50;6250919;22;45223;-81
2022/06/06 01:29:24;;;;;;;;;12.00;8.80;;;;;15.91;100.00;101385.09;6245632;22;45316;-81
2022/06/06 01:32:11;;;;;;;;;7.60;7.60;;;;;15.86;100.00;101385.47;6220383;22;44767;-81
2022/06/06 01:34:41;;;;;;;;;14.20;11.00;;;;;15.83;100.00;101387.50;6245477;22;45362;-81
2022/06/06 01:37:31;;;;;;;;;10.40;10.40;;;;;15.78;100.00;101395.91;6244326;22;45388;-82
2022/06/06 01:40:00;;;;;;;;;12.00;11.80;;;;;15.79;100.00;101394.09;6241206;22;45250;-81
2022/06/06 01:42:43;;;;;;;;;8.20;7.80;;;;;15.76;100.00;101391.63;6241972;22;45385;-82
2022/06/06 01:45:17;;;;;;;;;11.00;11.00;;;;;15.75;100.00;101389.94;6241236;22;44869;-82
2022/06/06 01:47:50;;;;;;;;;9.20;9.20;;;;;15.73;100.00;101392.75;6242553;22;45300;-81
2022/06/06 01:50:17;;;;;;;;;10.00;10.00;;;;;15.73;100.00;101390.06;6241902;22;45155;-81
2022/06/06 01:52:50;;;;;;;;;11.20;9.80;;;;;15.72;100.00;101393.72;6243237;22;44686;-82
2022/06/06 01:55:16;;;;;;;;;8.20;8.20;;;;;15.72;100.00;101391.03;6244621;22;45367;-85
2022/06/06 01:57:42;;;;;;;;;12.00;12.00;;;;;15.73;100.00;101395.41;6231688;22;45220;-85
2022/06/06 02:00:08;;;;;;;;;11.60;11.60;;;;;15.74;100.00;101393.59;6309990;22;45182;-84
2022/06/06 02:02:34;;;;;;;;;11.25;10.00;;;;;15.73;100.00;101387.38;6306557;22;45339;-85
2022/06/06 02:05:00;;;;;;;;;9.60;7.80;;;;;15.74;100.00;101388.22;6308674;22;45370;-86
2022/06/06 02:07:25;;;;;;;;;12.75;11.25;;;;;15.72;100.00;101384.84;6309890;22;45411;-85
2022/06/06 02:09:50;;;;;;;;;12.00;10.00;;;;;15.71;100.00;101385.78;6310461;22;45259;-85
2022/06/06 02:12:17;;;;;;;;;10.00;10.00;;;;;15.66;100.00;101381.66;6308301;22;44729;-85
2022/06/06 02:14:42;;;;;;;;;10.60;10.60;;;;;15.64;100.00;101385.41;6311657;22;44728;-86
2022/06/06 02:17:07;;;;;;;;;11.25;9.00;;;;;15.62;100.00;101377.47;6316230;22;45487;-85
2022/06/06 02:19:34;;;;;;;;;10.75;7.75;;;;;15.58;100.00;101375.16;6317705;22;44845;-85
2022/06/06 02:21:59;;;;;;;;;8.20;7.20;;;;;15.56;100.00;101371.72;6315427;22;44693;-85
2022/06/06 02:24:26;;;;;;;;;8.50;7.25;;;;;15.52;100.00;101370.25;6321797;22;44989;-85
2022/06/06 02:26:51;;;;;;;;;8.60;6.80;;;;;15.50;100.00;101357.00;6328751;22;44648;-86
2022/06/06 02:29:16;;;;;;;;;7.00;7.00;;;;;15.49;100.00;101360.66;6318852;22;45284;-85
2022/06/06 02:31:42;;;;;;;;;6.25;6.25;;;;;15.45;100.00;101355.66;6313813;22;44902;-86
2022/06/06 02:34:08;;;;;;;;;6.00;6.00;;;;;15.47;100.00;101361.72;6311212;22;45002;-85
2022/06/06 02:36:34;;;;;;;;;6.80;6.80;;;;;15.46;100.00;101354.66;6311215;22;44804;-84
2022/06/06 02:38:59;;;;;;;;;3.00;3.00;;;;;15.44;100.00;101352.13;6316006;22;45480;-84
2022/06/06 02:41:26;;;;;;;;;8.00;6.75;;;;;15.42;100.00;101359.41;6320416;22;45302;-85
2022/06/06 02:43:52;;;;;;;;;6.20;6.20;;;;;15.40;100.00;101364.03;6291598;22;44706;-85
2022/06/06 02:46:18;;;;;;;;;5.80;4.60;;;;;15.36;100.00;101359.88;6316605;22;45308;-85
2022/06/06 02:48:44;;;;;;;;;4.00;4.00;;;;;15.33;100.00;101358.31;6310342;22;46317;-85
2022/06/06 02:51:10;;;;;;;;;5.50;5.50;;;;;15.32;100.00;101364.63;6307277;22;45162;-86
2022/06/06 02:53:36;;;;;;;;;7.25;6.75;;;;;15.28;100.00;101351.59;6307921;22;44768;-85
2022/06/06 02:56:03;;;;;;;;;4.80;3.40;;;;;15.24;100.00;101352.81;6305364;22;45431;-85
2022/06/06 02:58:29;;;;;;;;;4.20;4.20;;;;;15.18;100.00;101356.78;6312072;22;45198;-85
2022/06/06 03:01:07;;;;;;;;;8.20;7.20;;;;;15.13;100.00;101350.94;6312552;22;45158;-86
2022/06/06 03:03:33;;;;;;;;;6.40;5.40;;;;;15.14;100.00;101353.50;6310479;22;44637;-86
2022/06/06 03:06:05;;;;;;;;;4.40;4.40;;;;;15.11;100.00;101352.88;6318807;22;44817;-85
2022/06/06 03:08:48;;;;;;;;;3.60;2.20;;;;;15.09;100.00;101361.03;6319990;22;45256;-84
2022/06/06 03:11:13;;;;;;;;;10.60;6.20;;;;;15.05;100.00;101356.88;6319667;22;44736;-85
2022/06/06 03:14:32;;;;;;;;;7.25;7.25;;;;;14.94;100.00;101361.31;6324163;22;45458;-86
2022/06/06 03:20:49;;;;;;;;;5.60;4.60;;;;;14.95;100.00;101368.41;6198593;23;44952;-85
2022/06/06 03:23:34;;;;;;;;;4.40;4.40;;;;;14.93;100.00;101368.50;6137018;23;44767;-87
2022/06/06 03:26:05;;;;;;;;;4.80;4.80;;;;;14.93;100.00;101365.81;6138237;23;44811;-85
2022/06/06 03:28:36;;;;;;;;;6.20;6.20;;;;;14.91;100.00;101367.78;6143206;23;44766;-85
2022/06/06 03:31:19;;;;;;;;;5.60;4.60;;;;;14.88;100.00;101376.03;6143891;23;45309;-86
2022/06/06 03:33:54;;;;;;;;;4.20;4.20;;;;;14.82;100.00;101380.00;6138650;23;44811;-87
2022/06/06 03:36:41;;;;;;;;;5.40;4.20;;;;;14.79;100.00;101366.00;6136482;23;45447;-85
2022/06/06 03:39:16;;;;;;;;;7.40;7.40;;;;;14.76;100.00;101369.78;6137763;23;45280;-86
2022/06/06 03:42:07;;;;;;;;;5.80;4.60;;;;;14.73;100.00;101374.50;6132918;23;45240;-86
2022/06/06 03:44:50;;;;;;;;;3.40;3.40;;;;;14.70;100.00;101380.06;6132810;23;44749;-86
2022/06/06 03:47:42;;;;;;;;;7.00;6.20;;;;;14.66;100.00;101379.47;6106273;23;45198;-85
2022/06/06 03:50:24;;;;;;;;;4.40;4.20;;;;;14.63;100.00;101380.53;6159759;22;44787;-86
2022/06/06 03:53:00;;;;;;;;;6.20;6.20;;;;;14.64;100.00;101382.22;6248955;22;44963;-86
2022/06/06 03:55:53;;;;;;;;;7.00;6.00;;;;;14.62;100.00;101380.63;6248112;22;45445;-86
2022/06/06 03:58:21;;;;;;;;;8.00;7.00;;;;;14.60;100.00;101380.75;6223081;22;44845;-85
2022/06/06 04:00:48;;;;;;;;;7.40;4.00;;;;;14.57;100.00;101380.13;6300717;22;44703;-86
2022/06/06 04:03:15;;;;;;;;;6.00;4.00;;;;;14.55;100.00;101377.56;6316151;22;46826;-85
2022/06/06 04:05:41;;;;;;;;;4.00;4.00;;;;;14.57;100.00;101380.13;6319746;22;44697;-85
2022/06/06 04:08:08;;;;;;;;;5.25;4.00;;;;;14.62;100.00;101388.66;6319385;22;44700;-86
2022/06/06 04:11:02;;;;;;;;;4.80;4.80;;;;;14.62;100.00;101391.34;6314279;22;44896;-85
2022/06/06 04:13:51;;;;;;;;;5.00;5.00;;;;;14.63;100.00;101393.88;6312888;22;47934;-84
2022/06/06 04:16:29;;;;;;;;;3.40;3.40;;;;;14.70;100.00;101398.78;6316712;22;45395;-86
2022/06/06 04:19:11;;;;;;;;;5.40;3.80;;;;;14.77;100.00;101400.06;6316038;22;44654;-85
2022/06/06 04:21:59;;;;;;;;;4.40;4.40;;;;;14.90;100.00;101400.84;6288275;22;44940;-85
2022/06/06 04:25:27;;;;;;;;;4.00;4.00;;;;;15.08;100.00;101406.63;6164500;23;45886;-85
2022/06/06 04:28:20;;;;;;;;;4.80;4.00;;;;;15.20;100.00;101404.88;6074952;23;44550;-84
2022/06/06 04:31:00;;;;;;;;;4.60;4.60;;;;;15.29;100.00;101394.31;6073693;23;44848;-84
2022/06/06 04:33:45;;;;;;;;;4.20;4.20;;;;;15.37;100.00;101391.03;6070528;23;44678;-85
2022/06/06 04:36:19;;;;;;;;;3.20;3.20;;;;;15.43;100.00;101396.78;6071862;23;45379;-83
2022/06/06 04:39:05;;;;;;;;;3.20;3.20;;;;;15.55;100.00;101392.31;6067920;23;45531;-82
2022/06/06 04:41:45;;;;;;;;;8.20;6.60;;;;;15.63;100.00;101391.72;6066570;23;44690;-83
2022/06/06 04:44:20;;;;;;;;;6.20;4.80;;;;;15.73;100.00;101387.38;6062993;23;44735;-81
2022/06/06 04:46:57;;;;;;;;;3.40;3.00;;;;;15.65;100.00;101385.28;6066275;23;45311;-86
2022/06/06 04:49:27;;;;;;;;;4.40;4.40;;;;;15.63;100.00;101381.88;6064728;23;45453;-86
2022/06/06 04:51:54;;;;;;;;;5.00;4.20;;;;;15.50;100.00;101380.25;6066956;23;45345;-86
2022/06/06 04:54:23;;;;;;;;;5.00;4.00;;;;;15.46;100.00;101389.47;6066408;23;44825;-85
2022/06/06 04:56:51;;;;;;;;;2.00;2.00;;;;;15.42;100.00;101386.19;6064686;23;45440;-86
2022/06/06 04:59:20;;;;;;;;;2.00;2.00;;;;;15.30;100.00;101390.66;6094102;23;44743;-85
2022/06/06 05:01:46;;;;;;;;;3.00;2.00;;;;;15.29;100.00;101377.41;6157983;22;44665;-85
2022/06/06 05:04:11;;;;;;;;;2.00;2.00;;;;;15.33;100.00;101379.72;6267757;22;45404;-85
2022/06/06 05:06:58;;;;;;;;;4.00;4.00;;;;;15.46;100.00;101387.66;6315818;22;44950;-85
2022/06/06 05:09:36;;;;;;;;;6.40;5.00;;;;;15.47;100.00;101383.16;6314661;22;45352;-86
2022/06/06 05:12:23;;;;;;;;;4.00;3.00;;;;;15.45;100.00;101377.91;6310847;22;44711;-86
2022/06/06 05:15:13;;;;;;;;;2.00;2.00;;;;;15.35;100.00;101384.97;6309153;22;44649;-86
2022/06/06 05:18:12;;;;;;;;;1.60;1.60;;;;;15.38;100.00;101385.59;6306458;22;45426;-87
2022/06/06 05:20:48;;;;;;;;;1.00;1.00;;;;;15.36;100.00;101390.19;6307322;22;45351;-87
2022/06/06 05:23:17;;;;;;;;;3.00;2.00;;;;;15.36;100.00;101381.31;6308350;22;44695;-85
2022/06/06 05:25:49;;;;;;;;;2.40;1.20;;;;;15.29;100.00;101386.28;6308427;22;45154;-87
2022/06/06 05:28:21;;;;;;;;;1.40;1.20;;;;;15.39;100.00;101386.44;6318738;22;45074;-86
2022/06/06 05:31:14;;;;;;;;;1.00;1.00;;;;;15.52;100.00;101397.03;6285539;22;44768;-82
2022/06/06 05:33:58;;;;;;;;;1.80;1.00;;;;;15.83;100.00;101393.72;6310507;22;45400;-81
2022/06/06 05:36:45;;;;;;;;;2.00;2.00;;;;;15.93;100.00;101391.16;6309277;22;45086;-82
2022/06/06 05:39:38;;;;;;;;;3.00;1.00;;;;;16.17;100.00;101391.91;6314176;22;45349;-83
2022/06/06 05:42:06;;;;;;;;;0.20;0.20;;;;;16.55;100.00;101379.06;6187529;23;44743;-82
2022/06/06 05:44:40;;;;;;;;;1.00;1.00;;;;;16.78;100.00;101391.47;6182706;23;45474;-82
2022/06/06 05:47:30;;;;;;;;;2.00;2.00;;;;;17.03;100.00;101392.97;6156293;23;45436;-83
2022/06/06 05:50:25;;;;;;;;;1.00;1.00;;;;;16.75;100.00;101389.03;6186078;23;45416;-83
2022/06/06 05:52:50;;;;;;;;;1.00;1.00;;;;;16.92;100.00;101390.28;6185967;23;44874;-81
2022/06/06 05:55:41;;;;;;;;;0.75;0.75;;;;;17.19;100.00;101401.41;6164930;23;44799;-82
2022/06/06 05:58:29;;;;;;;;;0.60;0.00;;;;;17.58;100.00;101400.84;6196229;23;44746;-82
2022/06/06 06:01:13;;;;;;;;;0.80;0.80;;;;;17.87;100.00;101399.19;6191468;23;45083;-82
2022/06/06 06:04:01;;;;;;;;;3.40;2.00;;;;;18.05;100.00;101393.22;6187189;23;44719;-82
2022/06/06 06:06:47;;;;;;;;;0.20;0.20;;;;;18.16;100.00;101396.66;6184799;23;45240;-83
2022/06/06 06:09:24;;;;;;;;;0.40;0.40;;;;;18.34;100.00;101401.38;6183446;23;45274;-83
2022/06/06 06:12:11;;;;;;;;;0.40;0.40;;;;;18.52;100.00;101407.81;6182049;23;45629;-83
2022/06/06 06:15:03;;;;;;;;;1.00;0.00;;;;;18.66;100.00;101393.97;6181556;23;45243;-81
2022/06/06 06:17:32;;;;;;;;;2.00;0.60;;;;;18.54;100.00;101410.38;6180301;23;44664;-83
2022/06/06 06:20:08;;;;;;;;;1.00;1.00;;;;;18.78;100.00;101407.34;6292194;22;45277;-82
2022/06/06 06:22:40;;;;;;;;;1.00;1.00;;;;;18.83;100.00;101405.91;6305852;22;45316;-83
2022/06/06 06:25:08;;;;;;;;;0.80;0.80;;;;;18.74;100.00;101414.81;6312080;22;44804;-87
2022/06/06 06:27:34;;;;;;;;;2.00;0.00;;;;;18.16;100.00;101415.47;6318238;22;44831;-87
2022/06/06 06:30:04;;;;;;;;;1.60;0.20;;;;;17.80;100.00;101418.69;6314509;22;45479;-87
2022/06/06 06:32:51;;;;;;;;;0.00;0.00;;;;;17.67;100.00;101421.56;6281175;22;46634;-85
2022/06/06 06:35:26;;;;;;;;;0.40;0.40;;;;;17.84;100.00;101421.00;6309518;22;45349;-86
2022/06/06 06:38:05;;;;;;;;;0.00;0.00;;;;;17.84;100.00;101421.00;6309149;22;44684;-85
2022/06/06 06:40:59;;;;;;;;;1.00;1.00;;;;;18.06;100.00;101422.66;6308612;22;45027;-86
2022/06/06 06:43:44;;;;;;;;;0.40;0.40;;;;;18.27;100.00;101425.28;6316187;22;45262;-85
2022/06/06 06:46:38;;;;;;;;;1.00;1.00;;;;;18.60;100.00;101428.66;6287960;22;44692;-86
2022/06/06 06:49:31;;;;;;;;;1.00;1.00;;;;;18.70;100.00;101419.63;6297137;22;44751;-82
2022/06/06 06:52:35;;;;;;;;;1.00;1.00;;;;;18.95;100.00;101430.84;6305923;22;44618;-81
2022/06/06 06:55:38;;;;;;;;;1.00;1.00;;;;;18.68;100.00;101426.13;6158013;23;45434;-82
2022/06/06 06:58:13;;;;;;;;;1.00;1.00;;;;;18.05;100.00;101426.31;6179560;23;44774;-82
2022/06/06 07:01:02;;;;;;;;;2.00;0.40;;;;;18.01;100.00;101424.03;6154550;23;45401;-83
2022/06/06 07:09:56;;;;;;;;;0.00;0.00;;;;;18.41;100.00;101424.06;6187333;23;44768;-86
2022/06/06 07:12:43;;;;;;;;;3.00;2.00;;;;;18.01;100.00;101427.56;6182139;23;44916;-81
2022/06/06 07:15:21;;;;;;;;;0.80;0.80;;;;;18.42;100.00;101421.25;6180000;23;45302;-82
2022/06/06 07:17:51;;;;;;;;;1.00;1.00;;;;;18.58;100.00;101427.94;6179710;23;45159;-82
2022/06/06 07:20:18;;;;;;;;;1.00;1.00;;;;;18.43;100.00;101428.31;6180311;23;45379;-82
2022/06/06 07:23:05;;;;;;;;;0.40;0.40;;;;;18.54;100.00;101427.34;6185678;23;45257;-82
2022/06/06 07:25:50;;;;;;;;;1.20;1.20;;;;;18.61;100.00;101433.03;6183779;23;45459;-84
2022/06/06 07:28:22;;;;;;;;;1.00;1.00;;;;;18.66;100.00;101420.00;6205305;22;45232;-82
2022/06/06 07:31:11;;;;;;;;;0.60;0.60;;;;;18.82;100.00;101414.16;6305567;22;44692;-82
2022/06/06 07:33:45;;;;;;;;;1.00;1.00;;;;;19.07;100.00;101421.66;6306448;22;45206;-81
2022/06/06 07:36:41;;;;;;;;;1.00;1.00;;;;;19.34;100.00;101422.78;6305690;22;45123;-82
2022/06/06 07:39:34;;;;;;;;;0.00;0.00;;;;;19.77;100.00;101412.41;6305059;22;45228;-82
2022/06/06 07:42:16;;;;;;;;;1.00;1.00;;;;;20.03;100.00;101403.66;6241722;22;45526;-82
2022/06/06 07:45:21;;;;;;;;;0.00;0.00;;;;;19.55;100.00;101412.72;6225397;22;44749;-82
2022/06/06 07:47:52;;;;;;;;;0.00;0.00;;;;;19.43;100.00;101413.84;6248618;22;44900;-83
2022/06/06 07:50:26;;;;;;;;;1.00;1.00;;;;;19.51;100.00;101404.06;6254622;22;45287;-82
2022/06/06 07:53:00;;;;;;;;;1.00;1.00;;;;;19.63;100.00;101406.59;6255362;22;44719;-81
2022/06/06 07:55:52;;;;;;;;;2.20;1.20;;;;;20.04;100.00;101405.38;6247367;22;44772;-83
2022/06/06 07:58:36;;;;;;;;;1.60;1.00;;;;;20.29;100.00;101395.72;6246033;22;44888;-82
2022/06/06 08:01:22;;;;;;;;;0.60;0.60;;;;;19.77;100.00;101406.16;6248308;22;45109;-83
2022/06/06 08:04:02;;;;;;;;;1.00;1.00;;;;;19.59;100.00;101408.72;6246482;22;45343;-81
2022/06/06 08:06:41;;;;;;;;;3.00;1.00;;;;;19.64;100.00;101400.25;6251463;22;45207;-84
2022/06/06 08:09:33;;;;;;;;;1.00;1.00;;;;;19.53;100.00;101395.81;6244919;22;45219;-83
2022/06/06 08:12:01;;;;;;;;;0.00;0.00;;;;;19.33;100.00;101399.53;6233697;22;45355;-83
2022/06/06 08:14:54;;;;;;;;;0.60;0.00;;;;;18.88;100.00;101402.81;6242363;22;45412;-82
2022/06/06 08:17:49;;;;;;;;;0.60;0.00;;;;;18.84;100.00;101399.53;6246378;22;45341;-81
2022/06/06 08:20:29;;;;;;;;;0.00;0.00;;;;;19.34;100.00;101395.84;6318235;22;44778;-83
2022/06/06 08:23:00;;;;;;;;;1.00;1.00;;;;;19.06;100.00;101393.03;6316132;22;45283;-83
2022/06/06 08:25:27;;;;;;;;;0.00;0.00;;;;;19.01;100.00;101398.00;6283954;22;44876;-82
2022/06/06 08:27:56;;;;;;;;;0.00;0.00;;;;;19.44;100.00;101386.78;6312793;22;45350;-83
2022/06/06 08:30:23;;;;;;;;;1.80;0.20;;;;;19.39;100.00;101389.06;6315071;22;44879;-86
2022/06/06 08:32:49;;;;;;;;;0.00;0.00;;;;;19.51;100.00;101387.03;6314589;22;46939;-86
2022/06/06 08:35:15;;;;;;;;;2.00;0.60;;;;;19.86;100.00;101393.66;6310206;22;44760;-85
2022/06/06 08:38:02;;;;;;;;;0.00;0.00;;;;;20.03;100.00;101387.50;6310463;22;44712;-87
2022/06/06 08:40:55;;;;;;;;;1.00;0.20;;;;;20.46;100.00;101380.59;6308062;22;45338;-86
2022/06/06 08:43:59;;;;;;;;;0.40;0.40;;;;;20.84;100.00;101374.13;6312090;22;45108;-86
2022/06/06 08:46:41;;;;;;;;;1.00;1.00;;;;;20.88;100.00;101380.88;6316462;22;44768;-87
2022/06/06 08:53:29;;;;;;;;;2.00;0.00;;;;;20.43;100.00;101381.75;6318225;22;45251;-86
2022/06/06 08:56:32;;;;;;;;;1.40;0.60;;;;;20.04;100.00;101375.69;6134694;23;45278;-86
2022/06/06 08:59:28;;;;;;;;;0.60;0.60;;;;;19.85;100.00;101384.72;6103743;23;45364;-88
2022/06/06 09:02:14;;;;;;;;;0.00;0.00;;;;;20.11;100.00;101374.09;6127081;23;45681;-86
2022/06/06 09:04:54;;;;;;;;;0.20;0.20;;;;;19.96;100.00;101379.13;6122672;23;45519;-82
2022/06/06 09:07:44;;;;;;;;;0.00;0.00;;;;;19.86;100.00;101385.56;6120948;23;45125;-83
2022/06/06 09:10:28;;;;;;;;;2.00;0.00;;;;;19.54;100.00;101381.38;6120579;23;44827;-82
2022/06/06 09:13:21;;;;;;;;;0.00;0.00;;;;;19.72;100.00;101392.25;6097510;23;44880;-84
2022/06/06 09:16:11;;;;;;;;;1.00;1.00;;;;;19.95;100.00;101384.66;6130821;23;44816;-84
2022/06/06 09:18:58;;;;;;;;;0.00;0.00;;;;;19.97;100.00;101382.69;6121786;23;45337;-82
2022/06/06 09:21:38;;;;;;;;;0.00;0.00;;;;;20.05;100.00;101380.09;6096877;23;45325;-82
2022/06/06 09:24:29;;;;;;;;;2.00;0.60;;;;;20.09;100.00;101389.59;6123450;23;44747;-82
2022/06/06 09:27:04;;;;;;;;;2.00;0.00;;;;;20.42;100.00;101385.44;6157732;23;44859;-84
2022/06/06 09:29:39;;;;;;;;;0.00;0.00;;;;;20.53;100.00;101374.47;6239285;22;46608;-83
2022/06/06 09:32:42;;;;;;;;;0.80;0.80;;;;;20.48;100.00;101384.88;6307017;22;44807;-82
2022/06/06 09:35:26;;;;;;;;;0.40;0.40;;;;;19.94;100.00;101378.44;6307245;22;44672;-82
2022/06/06 09:38:14;;;;;;;;;1.60;1.60;;;;;19.76;100.00;101382.88;6316032;22;44800;-82
2022/06/06 09:40:40;;;;;;;;;1.80;1.20;;;;;20.01;100.00;101370.59;6310569;22;45314;-84
2022/06/06 09:43:15;;;;;;;;;0.00;0.00;;;;;20.18;100.00;101377.06;6314667;22;44720;-83
2022/06/06 09:46:15;;;;;;;;;0.00;0.00;;;;;20.48;100.00;101379.47;6281940;22;45213;-84
2022/06/06 09:49:03;;;;;;;;;1.00;0.00;;;;;20.63;100.00;101369.00;6279123;22;45331;-83
2022/06/06 09:51:49;;;;;;;;;0.20;0.20;;;;;20.74;100.00;101366.09;6307442;22;45104;-82
2022/06/06 10:00:37;;;;;;;;;0.00;0.00;;;;;19.98;100.00;101373.59;6315278;22;45357;-82
2022/06/06 10:03:21;;;;;;;;;2.20;0.00;;;;;19.81;100.00;101379.75;6311196;22;45391;-82
2022/06/06 10:06:04;;;;;;;;;0.40;0.40;;;;;19.63;100.00;101368.88;6306626;22;45343;-83
2022/06/06 10:08:51;;;;;;;;;0.20;0.00;;;;;20.18;100.00;101363.56;6308242;22;45345;-82
2022/06/06 10:11:38;;;;;;;;;0.60;0.60;;;;;20.35;100.00;101368.13;6313003;22;45249;-84
2022/06/06 10:14:34;;;;;;;;;0.00;0.00;;;;;20.42;100.00;101368.41;6307846;22;45249;-84
2022/06/06 10:17:19;;;;;;;;;1.20;0.00;;;;;20.27;97.89;101373.47;6312431;22;44866;-81
2022/06/06 10:20:02;;;;;;;;;0.00;0.00;;;;;19.91;97.80;101370.63;6306562;22;45294;-83
2022/06/06 10:22:33;;;;;;;;;0.00;0.00;;;;;19.96;99.34;101376.41;6308074;22;45233;-83
2022/06/06 10:25:25;;;;;;;;;0.20;0.20;;;;;20.05;100.00;101373.84;6308497;22;45130;-83
2022/06/06 10:28:02;;;;;;;;;0.00;0.00;;;;;20.22;100.00;101378.47;6308107;22;45171;-83
2022/06/06 10:30:40;;;;;;;;;1.60;0.00;;;;;20.54;100.00;101373.44;6306786;22;44781;-82
2022/06/06 10:33:43;;;;;;;;;0.00;0.00;;;;;20.98;99.27;101376.28;6293001;22;44942;-85
2022/06/06 10:36:30;;;;;;;;;0.00;0.00;;;;;21.05;95.94;101388.16;6327372;22;45124;-85
2022/06/06 10:39:14;;;;;;;;;0.00;0.00;;;;;20.87;96.09;101383.75;6327303;22;44672;-87
2022/06/06 10:42:01;;;;;;;;;0.00;0.00;;;;;20.83;99.25;101371.56;6322687;22;44770;-86
2022/06/06 10:44:45;;;;;;;;;0.00;0.00;;;;;20.58;95.38;101378.56;6322084;22;44763;-86
2022/06/06 10:47:13;;;;;;;;;0.00;0.00;;;;;20.67;99.79;101370.41;6322655;22;45194;-85
2022/06/06 10:50:10;;;;;;;;;1.60;0.80;;;;;20.52;99.26;101380.88;6323565;22;44757;-86
2022/06/06 10:53:15;;;;;;;;;0.00;0.00;;;;;20.49;99.17;101374.91;6228020;22;44771;-84
2022/06/06 10:56:16;;;;;;;;;1.60;0.00;;;;;20.39;97.55;101376.78;6222647;22;45161;-86
2022/06/06 10:59:31;;;;;;;;;1.00;1.00;;;;;20.33;96.26;101382.81;6221833;22;45260;-86
2022/06/06 11:02:09;;;;;;;;;1.00;0.80;;;;;20.41;97.75;101374.81;6224871;22;44738;-87
2022/06/06 11:05:04;;;;;;;;;0.40;0.00;;;;;20.49;96.31;101369.50;6228962;22;45531;-86
2022/06/06 11:07:44;;;;;;;;;0.00;0.00;;;;;20.35;96.61;101367.28;6223883;22;44667;-86
2022/06/06 11:10:28;;;;;;;;;0.00;0.00;;;;;20.75;97.14;101358.84;6213634;22;46661;-85
2022/06/06 11:13:12;;;;;;;;;2.00;0.00;;;;;20.87;93.65;101363.00;6213188;22;45260;-86
2022/06/06 11:15:42;;;;;;;;;0.20;0.20;;;;;21.19;96.04;101359.75;6214363;22;44806;-86
2022/06/06 11:18:22;;;;;;;;;0.40;0.40;;;;;21.55;89.80;101357.81;6213897;22;44892;-87
2022/06/06 11:21:33;;;;;;;;;0.00;0.00;;;;;21.52;91.27;101362.72;6212438;22;45353;-88
2022/06/06 11:24:01;;;;;;;;;0.00;0.00;;;;;21.47;90.12;101362.34;6185969;22;45440;-85
2022/06/06 11:26:49;;;;;;;;;0.00;0.00;;;;;21.52;91.47;101360.88;6213363;22;45239;-86
2022/06/06 11:29:38;;;;;;;;;0.00;0.00;;;;;21.81;87.95;101363.25;6252662;22;45337;-87
2022/06/06 11:32:35;;;;;;;;;0.60;0.60;;;;;22.23;86.67;101364.28;6289789;22;45304;-86
2022/06/06 11:35:57;;;;;;;;;0.00;0.00;;;;;22.51;83.72;101349.50;6321049;22;45297;-85
2022/06/06 11:38:58;;;;;;;;;0.00;0.00;;;;;22.78;81.10;101352.94;6317544;22;44705;-86
2022/06/06 11:41:51;;;;;;;;;0.00;0.00;;;;;22.98;72.04;101367.91;6184390;23;45307;-88
2022/06/06 11:44:49;;;;;;;;;0.00;0.00;;;;;22.74;69.37;101368.69;6185679;23;45213;-86
2022/06/06 11:47:44;;;;;;;;;0.00;0.00;;;;;22.06;70.48;101361.50;6159689;23;45346;-86
2022/06/06 11:50:38;;;;;;;;;0.20;0.00;;;;;21.81;73.62;101357.84;6183627;23;44771;-85
2022/06/06 11:53:28;;;;;;;;;1.00;1.00;;;;;22.01;78.59;101361.13;6187200;23;45475;-86
2022/06/06 11:56:09;;;;;;;;;0.00;0.00;;;;;22.65;76.66;101361.53;6185476;23;46269;-86
2022/06/06 11:59:13;;;;;;;;;0.00;0.00;;;;;23.11;68.08;101366.53;6188043;22;44740;-85
2022/06/06 12:02:15;;;;;;;;;1.00;0.00;;;;;23.25;71.24;101363.97;6193520;23;44750;-86
2022/06/06 12:05:32;;;;;;;;;0.00;0.00;;;;;23.43;70.96;101349.41;6184979;23;44793;-83
2022/06/06 12:08:13;;;;;;;;;0.00;0.00;;;;;22.87;67.27;101354.66;6137072;23;45443;-81
2022/06/06 12:11:23;;;;;;;;;0.80;0.20;;;;;22.71;71.59;101349.19;6160330;23;44778;-82
2022/06/06 12:14:02;;;;;;;;;2.00;1.00;;;;;22.46;70.60;101351.00;6095063;23;44740;-83
2022/06/06 12:16:39;;;;;;;;;1.20;1.20;;;;;21.89;73.51;101343.47;6093765;23;45398;-83
2022/06/06 12:19:51;;;;;;;;;0.00;0.00;;;;;22.05;67.60;101348.97;6136903;23;45199;-83
2022/06/06 12:22:35;;;;;;;;;0.00;0.00;;;;;22.50;63.14;101339.69;6152426;23;44853;-83
2022/06/06 12:25:31;;;;;;;;;0.00;0.00;;;;;21.87;60.27;101350.91;6153489;23;45410;-83
2022/06/06 12:28:17;;;;;;;;;0.00;0.00;;;;;21.77;61.45;101363.72;6157708;23;45590;-83
2022/06/06 12:30:42;;;;;;;;;0.00;0.00;;;;;21.90;62.06;101339.75;6153436;23;45550;-82
2022/06/06 12:33:18;;;;;;;;;2.00;0.00;;;;;22.02;63.14;101346.59;6151799;23;45207;-83
2022/06/06 12:35:54;;;;;;;;;0.80;0.80;;;;;22.14;65.01;101330.09;6150922;23;45374;-83
2022/06/06 12:38:27;;;;;;;;;1.00;0.40;;;;;22.05;61.33;101340.03;6125688;23;44796;-83